Time;durP1;ratioP1;P1;durP2;ratioP2;P2;SDS_P1;SDS_P2;PMS_P1;PMS_P2;Temp;Humidity;BMP_temperature;BMP_pressure;BME280_temperature;BME280_humidity;BME280_pressure;Samples;Min_cycle;Max_cycle;Signal;HPM_P1;HPM_P2
2022/12/10 00:01:47;;;;;;;61.22;24.45;;;-1.70;99.90;;;;;;5131688;27;20042;-43
2022/12/10 00:04:14;;;;;;;60.60;23.77;;;-1.80;99.90;;;;;;5131845;27;20035;-46
2022/12/10 00:06:41;;;;;;;55.90;21.67;;;-1.80;99.90;;;;;;5132041;27;20023;-44
2022/12/10 00:09:11;;;;;;;70.80;25.77;;;-1.80;99.90;;;;;;5131569;27;20045;-45
2022/12/10 00:11:38;;;;;;;64.13;23.95;;;-1.70;99.90;;;;;;5131577;27;20043;-43
2022/12/10 00:14:03;;;;;;;63.15;24.00;;;-1.70;99.90;;;;;;5132102;27;20035;-44
2022/12/10 00:16:33;;;;;;;62.95;22.95;;;-1.90;99.90;;;;;;5131753;27;20045;-46
2022/12/10 00:19:00;;;;;;;60.20;23.25;;;-1.90;99.90;;;;;;5113452;27;20138;-44
2022/12/10 00:21:32;;;;;;;67.18;25.23;;;-1.90;99.90;;;;;;5131698;27;20529;-43
2022/12/10 00:23:58;;;;;;;68.32;25.25;;;-1.90;99.90;;;;;;5130665;27;20042;-45
2022/12/10 00:26:27;;;;;;;69.82;24.30;;;-2.00;99.90;;;;;;5131526;27;20031;-44
2022/12/10 00:28:53;;;;;;;68.30;23.85;;;-2.00;99.90;;;;;;5131766;27;20042;-45
2022/12/10 00:31:28;;;;;;;67.60;24.35;;;-1.90;99.90;;;;;;5112796;27;20123;-45
2022/12/10 00:33:56;;;;;;;67.93;24.75;;;-2.10;99.90;;;;;;5127774;27;20389;-44
2022/12/10 00:36:25;;;;;;;62.92;24.25;;;-2.00;99.90;;;;;;5131399;27;20061;-48
2022/12/10 00:38:51;;;;;;;67.13;23.42;;;-2.10;99.90;;;;;;5131064;27;20045;-43
2022/12/10 00:41:17;;;;;;;56.95;21.88;;;-2.10;99.90;;;;;;5130909;27;20034;-44
2022/12/10 00:43:44;;;;;;;66.07;24.88;;;-2.00;99.90;;;;;;5130513;27;20031;-44
2022/12/10 00:46:11;;;;;;;72.10;24.15;;;-2.00;99.90;;;;;;5113111;27;20043;-43
2022/12/10 00:48:36;;;;;;;70.75;25.73;;;-2.20;99.90;;;;;;5131085;27;20398;-45
2022/12/10 00:51:08;;;;;;;64.82;24.15;;;-2.00;99.90;;;;;;5130842;27;20051;-45
2022/12/10 00:53:36;;;;;;;64.43;24.60;;;-2.10;99.90;;;;;;5131199;27;20486;-47
2022/12/10 00:56:03;;;;;;;73.28;25.08;;;-2.10;99.90;;;;;;5130920;27;20046;-44
2022/12/10 00:58:33;;;;;;;58.58;22.15;;;-2.20;99.90;;;;;;5131096;27;20043;-45
2022/12/10 01:01:20;;;;;;;62.55;23.60;;;-2.20;99.90;;;;;;5112973;28;20538;-44
2022/12/10 01:03:47;;;;;;;65.85;23.52;;;-2.10;99.90;;;;;;5131112;28;20035;-43
2022/12/10 01:06:20;;;;;;;64.80;23.48;;;-2.20;99.90;;;;;;5129752;28;20339;-43
2022/12/10 01:08:46;;;;;;;61.47;22.98;;;-2.20;99.90;;;;;;5130573;28;20047;-47
2022/12/10 01:11:13;;;;;;;70.75;23.55;;;-2.10;99.90;;;;;;5131252;28;20385;-43
2022/12/10 01:13:40;;;;;;;67.25;23.67;;;-2.20;99.90;;;;;;5112109;28;20043;-46
2022/12/10 01:16:07;;;;;;;67.88;24.02;;;-2.20;99.90;;;;;;5131094;28;20475;-45
2022/12/10 01:18:33;;;;;;;70.45;24.77;;;-2.20;99.90;;;;;;5111350;28;20351;-45
2022/12/10 01:21:09;;;;;;;70.07;24.55;;;-2.20;99.90;;;;;;5131021;28;20072;-46
2022/12/10 01:23:37;;;;;;;72.22;23.80;;;-2.10;99.90;;;;;;5130984;28;20046;-46
2022/12/10 01:26:07;;;;;;;65.10;23.40;;;-1.90;99.90;;;;;;5130316;28;20106;-47
2022/12/10 01:28:35;;;;;;;71.97;23.58;;;-2.10;99.90;;;;;;5130095;28;20072;-44
2022/12/10 01:31:07;;;;;;;64.75;24.55;;;-2.10;99.90;;;;;;5133494;27;20042;-45
2022/12/10 01:33:34;;;;;;;68.07;25.15;;;-1.90;99.90;;;;;;5135080;27;20414;-46
2022/12/10 01:36:09;;;;;;;68.93;24.27;;;-2.00;99.90;;;;;;5134400;27;20164;-46
2022/12/10 01:38:36;;;;;;;73.85;25.52;;;-2.00;99.90;;;;;;5134439;27;20073;-44
2022/12/10 01:41:02;;;;;;;74.65;25.92;;;-2.00;99.90;;;;;;5134816;27;20382;-44
2022/12/10 01:43:48;;;;;;;70.53;24.20;;;-2.10;99.90;;;;;;5116112;27;20039;-45
2022/12/10 01:46:14;;;;;;;70.40;24.10;;;-2.10;99.90;;;;;;5116119;27;20118;-47
2022/12/10 01:48:40;;;;;;;75.55;24.45;;;-2.20;99.90;;;;;;5134665;27;20030;-47
2022/12/10 01:51:06;;;;;;;75.68;26.77;;;-2.00;99.90;;;;;;5134209;27;20055;-47
2022/12/10 01:53:33;;;;;;;78.55;26.67;;;-2.00;99.90;;;;;;5134178;27;20050;-45
2022/12/10 01:55:59;;;;;;;74.82;26.88;;;-1.90;99.90;;;;;;5115821;27;20041;-45
2022/12/10 01:58:25;;;;;;;70.38;25.60;;;-2.00;99.90;;;;;;5134061;27;20038;-45
2022/12/10 02:01:21;;;;;;;76.03;26.88;;;-2.00;99.90;;;;;;5134167;27;20035;-43
2022/12/10 02:03:58;;;;;;;76.10;24.63;;;-2.00;99.90;;;;;;5130984;27;20035;-48
2022/12/10 02:06:42;;;;;;;75.95;25.55;;;-1.90;99.90;;;;;;5133486;27;20031;-43
2022/12/10 02:09:35;;;;;;;78.90;26.37;;;-1.90;99.90;;;;;;5133768;27;20046;-44
2022/12/10 02:12:25;;;;;;;79.00;24.00;;;-2.00;99.90;;;;;;5115823;27;20747;-43
2022/12/10 02:15:00;;;;;;;73.07;24.60;;;-1.90;99.90;;;;;;5133176;27;20043;-43
2022/12/10 02:17:36;;;;;;;71.07;25.13;;;-2.10;99.90;;;;;;5134135;27;20038;-44
2022/12/10 02:20:11;;;;;;;69.25;25.25;;;-2.10;99.90;;;;;;5134402;27;20110;-45
2022/12/10 02:22:42;;;;;;;62.58;23.65;;;-2.00;99.90;;;;;;5133622;27;20126;-43
2022/12/10 02:25:11;;;;;;;70.03;24.38;;;-2.00;99.90;;;;;;5134081;27;21937;-42
2022/12/10 02:28:04;;;;;;;75.10;23.17;;;-2.20;99.90;;;;;;5133971;27;20118;-42
2022/12/10 02:30:32;;;;;;;76.57;23.13;;;-2.00;99.90;;;;;;5122506;27;20129;-45
2022/12/10 02:33:03;;;;;;;67.55;23.55;;;-2.00;99.90;;;;;;5133450;27;20071;-45
2022/12/10 02:35:32;;;;;;;77.53;25.77;;;-2.10;99.90;;;;;;5133909;27;20055;-48
2022/12/10 02:38:29;;;;;;;79.07;24.08;;;-2.10;99.90;;;;;;5132483;27;20097;-46
2022/12/10 02:41:04;;;;;;;73.90;24.70;;;-2.10;99.90;;;;;;5111405;27;20035;-48
2022/12/10 02:43:30;;;;;;;69.05;25.13;;;-2.10;99.90;;;;;;5114213;27;20035;-43
2022/12/10 02:46:02;;;;;;;72.80;25.48;;;-2.30;99.90;;;;;;5133614;27;20035;-44
2022/12/10 02:48:28;;;;;;;77.55;25.30;;;-2.30;99.90;;;;;;5130375;27;20386;-47
2022/12/10 02:50:54;;;;;;;77.30;25.90;;;-2.20;99.90;;;;;;5133556;27;20043;-47
2022/12/10 02:53:19;;;;;;;80.78;24.67;;;-2.40;99.90;;;;;;5132881;27;20122;-48
2022/12/10 02:55:55;;;;;;;69.38;24.88;;;-2.30;99.90;;;;;;5133546;27;20070;-45
2022/12/10 02:58:59;;;;;;;73.13;26.17;;;-2.40;99.90;;;;;;5132741;27;20097;-44
2022/12/10 03:01:44;;;;;;;74.43;24.73;;;-2.20;99.90;;;;;;5129766;27;20138;-46
2022/12/10 03:04:29;;;;;;;74.40;25.13;;;-2.20;99.90;;;;;;5133432;27;20039;-44
2022/12/10 03:07:01;;;;;;;74.35;24.88;;;-2.30;99.90;;;;;;5113486;27;20047;-45
2022/12/10 03:09:39;;;;;;;64.68;23.45;;;-2.30;99.90;;;;;;5131602;27;20059;-44
2022/12/10 03:12:31;;;;;;;73.30;25.13;;;-2.30;99.90;;;;;;5132828;27;20122;-44
2022/12/10 03:15:02;;;;;;;66.35;23.42;;;-2.40;99.90;;;;;;5132647;27;20133;-42
2022/12/10 03:17:30;;;;;;;72.32;23.30;;;-2.50;99.90;;;;;;5131623;27;20041;-45
2022/12/10 03:19:58;;;;;;;83.32;25.77;;;-2.40;99.90;;;;;;5132602;27;20035;-46
2022/12/10 03:22:24;;;;;;;84.28;26.65;;;-2.50;99.90;;;;;;5133126;27;20084;-46
2022/12/10 03:24:51;;;;;;;72.75;24.55;;;-2.50;99.90;;;;;;5113496;27;20459;-43
2022/12/10 03:27:21;;;;;;;68.03;24.42;;;-2.40;99.90;;;;;;5129777;27;20031;-47
2022/12/10 03:29:55;;;;;;;66.05;23.63;;;-2.60;99.90;;;;;;5131459;27;20038;-46
2022/12/10 03:32:24;;;;;;;80.28;25.45;;;-2.60;99.90;;;;;;5132399;27;20035;-45
2022/12/10 03:34:52;;;;;;;71.80;24.58;;;-2.50;99.90;;;;;;5132500;27;20591;-46
2022/12/10 03:37:19;;;;;;;72.40;24.10;;;-2.60;99.90;;;;;;5132037;27;20054;-45
2022/12/10 03:39:45;;;;;;;78.95;26.00;;;-2.70;99.90;;;;;;5113748;27;20066;-44
2022/12/10 03:42:12;;;;;;;72.50;24.00;;;-2.50;99.90;;;;;;5132506;27;20231;-44
2022/12/10 03:44:40;;;;;;;75.57;24.70;;;-2.60;99.90;;;;;;5132264;27;20031;-44
2022/12/10 03:47:10;;;;;;;71.18;24.48;;;-2.60;99.90;;;;;;5132072;27;20042;-45
2022/12/10 03:49:35;;;;;;;79.20;24.88;;;-2.80;99.90;;;;;;5132176;27;20039;-47
2022/12/10 03:52:01;;;;;;;73.80;26.45;;;-2.60;99.90;;;;;;5131804;27;20513;-45
2022/12/10 03:54:27;;;;;;;70.90;24.13;;;-2.70;99.90;;;;;;5131733;27;20035;-47
2022/12/10 03:56:52;;;;;;;72.65;23.73;;;-2.70;99.90;;;;;;5132188;27;20027;-44
2022/12/10 03:59:18;;;;;;;76.10;24.70;;;-2.70;99.90;;;;;;5132177;27;20038;-44
2022/12/10 04:01:44;;;;;;;72.57;25.02;;;-2.60;99.90;;;;;;5113570;27;20039;-46
2022/12/10 04:04:10;;;;;;;76.13;24.80;;;-2.60;99.90;;;;;;5131953;27;20027;-45
2022/12/10 04:06:38;;;;;;;73.03;24.25;;;-2.60;99.90;;;;;;5132158;27;20272;-46
2022/12/10 04:09:03;;;;;;;73.18;26.17;;;-2.80;99.90;;;;;;5131522;27;20046;-46
2022/12/10 04:11:29;;;;;;;69.75;24.67;;;-2.70;99.90;;;;;;5128964;27;20035;-42
2022/12/10 04:16:39;;;;;;;73.88;24.10;;;-2.70;99.90;;;;;;5113810;27;20043;-46
2022/12/10 04:19:08;;;;;;;71.70;23.23;;;-2.70;99.90;;;;;;5112139;27;20485;-42
2022/12/10 04:27:16;;;;;;;78.78;24.88;;;-2.80;99.90;;;;;;5130747;27;20031;-44
2022/12/10 04:29:42;;;;;;;83.18;24.30;;;-3.00;99.90;;;;;;5095743;27;20162;-44
2022/12/10 04:32:08;;;;;;;67.38;22.27;;;-2.90;99.90;;;;;;5130186;27;20118;-46
2022/12/10 04:34:34;;;;;;;77.25;23.17;;;-3.00;99.90;;;;;;5131654;27;20092;-45
2022/12/10 04:37:01;;;;;;;69.10;24.02;;;-3.10;99.90;;;;;;5130592;27;20051;-45
2022/12/10 04:39:27;;;;;;;68.65;22.80;;;-3.00;99.90;;;;;;5112301;27;20103;-46
2022/12/10 04:41:52;;;;;;;77.07;24.42;;;-3.00;99.90;;;;;;5131436;27;20046;-42
2022/12/10 04:44:18;;;;;;;81.85;25.00;;;-2.80;99.90;;;;;;5131441;27;20031;-44
2022/12/10 04:46:45;;;;;;;82.78;24.85;;;-3.00;99.90;;;;;;5131309;27;20023;-45
2022/12/10 04:49:11;;;;;;;89.57;26.25;;;-2.80;99.90;;;;;;5130974;27;20074;-43
2022/12/10 04:51:36;;;;;;;104.00;28.38;;;-2.80;99.90;;;;;;5129758;27;20139;-45
2022/12/10 04:54:03;;;;;;;94.28;27.10;;;-2.70;99.90;;;;;;5130659;27;20091;-44
2022/12/10 04:56:28;;;;;;;130.63;27.55;;;-2.90;99.90;;;;;;5130984;27;20618;-43
2022/12/10 04:58:58;;;;;;;96.22;26.60;;;-2.70;99.90;;;;;;5112424;28;20055;-46
2022/12/10 05:01:24;;;;;;;250.85;31.20;;;-2.60;99.90;;;;;;5131029;27;20097;-45
2022/12/10 05:03:50;;;;;;;186.60;29.45;;;-2.70;99.90;;;;;;5130774;27;20035;-43
2022/12/10 05:06:17;;;;;;;106.85;28.25;;;-2.60;99.90;;;;;;5130558;28;20035;-44
2022/12/10 05:08:44;;;;;;;135.10;28.20;;;-2.70;99.90;;;;;;5111917;28;20042;-43
2022/12/10 05:11:13;;;;;;;188.13;27.20;;;-2.50;99.90;;;;;;5129166;28;20486;-45
2022/12/10 05:13:39;;;;;;;118.03;27.50;;;-2.50;99.90;;;;;;5130795;28;20030;-45
2022/12/10 05:16:06;;;;;;;142.38;26.40;;;-2.70;99.90;;;;;;5129899;28;20042;-45
2022/12/10 05:18:33;;;;;;;141.98;23.52;;;-2.40;99.90;;;;;;5110992;28;20129;-44
2022/12/10 05:21:00;;;;;;;119.68;24.92;;;-2.40;99.90;;;;;;5131136;28;20394;-44
2022/12/10 05:23:29;;;;;;;151.75;24.08;;;-2.70;99.90;;;;;;5128110;28;20466;-45
2022/12/10 05:26:16;;;;;;;187.57;25.13;;;-2.40;99.90;;;;;;5131044;28;20378;-45
2022/12/10 05:28:45;;;;;;;145.80;23.50;;;-2.40;99.90;;;;;;5112083;28;20050;-47
2022/12/10 05:31:18;;;;;;;124.38;21.90;;;-2.60;99.90;;;;;;5130671;28;20043;-45
2022/12/10 05:33:44;;;;;;;107.13;22.57;;;-2.60;99.90;;;;;;5130425;28;20493;-45
2022/12/10 05:36:11;;;;;;;137.13;22.75;;;-0.90;99.90;;;;;;5129482;28;20039;-46
2022/12/10 05:38:37;;;;;;;151.70;21.73;;;-2.30;99.90;;;;;;5130415;28;20043;-47
2022/12/10 05:41:16;;;;;;;135.15;22.40;;;-2.60;99.90;;;;;;5130467;28;20038;-44
2022/12/10 05:43:44;;;;;;;123.93;23.60;;;-2.60;99.90;;;;;;5130775;28;20084;-43
2022/12/10 05:46:16;;;;;;;186.55;24.27;;;-2.30;99.90;;;;;;5130939;28;20035;-47
2022/12/10 05:48:42;;;;;;;143.95;22.63;;;-2.40;99.90;;;;;;5095104;28;20067;-46
2022/12/10 05:51:10;;;;;;;160.02;22.60;;;-2.50;99.90;;;;;;5130748;28;20437;-43
2022/12/10 05:53:36;;;;;;;177.88;24.13;;;-2.50;99.90;;;;;;5129335;28;20129;-45
2022/12/10 05:56:07;;;;;;;138.73;23.27;;;-2.50;99.90;;;;;;5130573;28;20114;-44
2022/12/10 05:58:33;;;;;;;152.30;24.52;;;-2.60;99.90;;;;;;5094030;28;20047;-47
2022/12/10 06:00:59;;;;;;;188.00;24.02;;;-2.70;99.90;;;;;;5130539;28;20366;-46
2022/12/10 06:03:27;;;;;;;203.23;25.70;;;-2.60;99.90;;;;;;5130551;28;20031;-45
2022/12/10 06:05:53;;;;;;;222.50;27.95;;;-2.40;99.90;;;;;;5130528;28;20521;-43
2022/12/10 06:08:19;;;;;;;132.80;25.08;;;-2.50;99.90;;;;;;5127744;28;20035;-45
2022/12/10 06:10:45;;;;;;;131.52;24.75;;;-2.70;99.90;;;;;;5112001;28;20109;-44
2022/12/10 06:13:11;;;;;;;112.50;23.23;;;-2.50;99.90;;;;;;5130468;28;20382;-44
2022/12/10 06:15:39;;;;;;;293.10;30.83;;;-2.50;99.90;;;;;;5130591;27;20062;-42
2022/12/10 06:18:05;;;;;;;154.35;23.27;;;-2.60;99.90;;;;;;5134049;27;20062;-44
2022/12/10 06:20:31;;;;;;;137.57;23.38;;;-2.30;99.90;;;;;;5134048;27;20059;-44
2022/12/10 06:22:57;;;;;;;143.85;22.27;;;-2.70;99.90;;;;;;5131588;27;20122;-44
2022/12/10 06:25:23;;;;;;;171.35;25.27;;;-2.50;99.90;;;;;;5134064;27;20027;-43
2022/12/10 06:27:49;;;;;;;145.80;23.60;;;-2.60;99.90;;;;;;5134083;27;20038;-45
2022/12/10 06:30:15;;;;;;;130.50;22.42;;;-2.70;99.90;;;;;;5133915;27;20034;-46
2022/12/10 06:32:42;;;;;;;175.82;23.17;;;-2.70;99.90;;;;;;5133545;27;20046;-45
2022/12/10 06:35:10;;;;;;;142.80;24.15;;;-2.50;99.90;;;;;;5132636;27;20187;-44
2022/12/10 06:37:36;;;;;;;108.72;22.88;;;-2.80;99.90;;;;;;5133458;27;20043;-47
2022/12/10 06:40:03;;;;;;;137.88;21.90;;;-1.40;99.90;;;;;;5133335;27;20191;-46
2022/12/10 06:42:29;;;;;;;113.40;23.98;;;-2.40;99.90;;;;;;5132377;27;20035;-43
2022/12/10 06:44:54;;;;;;;171.48;28.08;;;-2.40;99.90;;;;;;5132595;27;20096;-42
2022/12/10 06:47:20;;;;;;;178.32;25.05;;;-2.60;99.90;;;;;;5133217;27;20455;-45
2022/12/10 06:49:46;;;;;;;180.70;27.05;;;-2.70;99.90;;;;;;5133620;27;20039;-44
2022/12/10 06:52:11;;;;;;;165.38;25.92;;;-2.40;99.90;;;;;;5113279;27;20406;-43
2022/12/10 06:54:37;;;;;;;174.82;26.73;;;-2.30;99.90;;;;;;5132720;27;20046;-45
2022/12/10 06:57:03;;;;;;;200.20;26.15;;;-2.40;99.90;;;;;;5133202;27;20043;-42
2022/12/10 06:59:28;;;;;;;194.85;24.73;;;-2.70;99.90;;;;;;5133294;27;20039;-44
2022/12/10 07:01:54;;;;;;;214.85;26.25;;;-2.40;99.90;;;;;;5133170;27;20043;-45
2022/12/10 07:04:20;;;;;;;162.77;23.80;;;-2.70;99.90;;;;;;5133255;27;20031;-46
2022/12/10 07:06:46;;;;;;;115.93;21.40;;;-2.80;99.90;;;;;;5133067;27;20394;-44
2022/12/10 07:09:11;;;;;;;146.75;22.65;;;-2.90;99.90;;;;;;5113375;27;20047;-45
2022/12/10 07:11:37;;;;;;;133.07;24.38;;;-2.80;99.90;;;;;;5133018;27;20027;-43
2022/12/10 07:14:03;;;;;;;159.73;23.38;;;-2.50;99.90;;;;;;5132746;27;20088;-45
2022/12/10 07:16:32;;;;;;;174.60;22.95;;;-2.80;99.90;;;;;;5097267;27;20151;-43
2022/12/10 07:19:00;;;;;;;215.70;26.10;;;-2.40;99.90;;;;;;5132796;27;20039;-43
2022/12/10 07:21:29;;;;;;;170.75;25.73;;;-2.40;99.90;;;;;;5131952;27;20039;-48
2022/12/10 07:23:57;;;;;;;107.30;24.42;;;-2.80;99.90;;;;;;5130054;27;20050;-42
2022/12/10 07:26:24;;;;;;;112.57;22.92;;;-2.80;99.90;;;;;;5132453;27;20035;-43
2022/12/10 07:28:50;;;;;;;120.00;23.55;;;-2.70;99.90;;;;;;5131677;27;20035;-44
2022/12/10 07:31:15;;;;;;;211.95;26.88;;;-2.80;99.90;;;;;;5132865;27;20046;-44
2022/12/10 07:33:41;;;;;;;149.00;24.75;;;-2.50;99.90;;;;;;5132636;27;20079;-44
2022/12/10 07:36:09;;;;;;;159.05;25.08;;;-2.60;99.90;;;;;;5131732;27;20051;-47
2022/12/10 07:38:35;;;;;;;117.43;23.15;;;-2.90;99.90;;;;;;5130853;27;20054;-47
2022/12/10 07:41:07;;;;;;;229.75;26.67;;;-2.40;99.90;;;;;;5132316;27;20040;-49
2022/12/10 07:43:34;;;;;;;102.10;23.02;;;-2.40;99.90;;;;;;5132649;27;20098;-45
2022/12/10 07:46:05;;;;;;;169.68;25.20;;;-2.50;99.90;;;;;;5130287;27;20497;-46
2022/12/10 07:48:32;;;;;;;147.65;26.40;;;-2.50;99.90;;;;;;5131222;27;20039;-47
2022/12/10 07:50:58;;;;;;;103.93;24.55;;;-2.40;99.90;;;;;;5132395;27;20099;-47
2022/12/10 07:53:24;;;;;;;165.98;26.60;;;-2.50;99.90;;;;;;5113615;27;20491;-46
2022/12/10 07:55:50;;;;;;;133.98;25.83;;;-2.80;99.90;;;;;;5113415;27;20050;-44
2022/12/10 07:58:16;;;;;;;132.85;25.73;;;-2.50;99.90;;;;;;5132094;27;20039;-47
2022/12/10 08:00:41;;;;;;;159.05;26.58;;;-2.40;99.90;;;;;;5132194;27;20114;-44
2022/12/10 08:03:07;;;;;;;199.57;27.85;;;-2.70;99.90;;;;;;5108661;27;20447;-45
2022/12/10 08:05:32;;;;;;;122.75;24.75;;;-2.40;99.90;;;;;;5122446;27;20031;-45
2022/12/10 08:07:58;;;;;;;201.57;30.20;;;-2.30;99.90;;;;;;5127065;27;20035;-44
2022/12/10 08:10:24;;;;;;;165.45;26.08;;;-2.20;99.90;;;;;;5113660;27;20035;-43
2022/12/10 08:12:49;;;;;;;194.45;25.55;;;-2.70;99.90;;;;;;5125835;27;20039;-43
2022/12/10 08:15:15;;;;;;;163.85;27.92;;;-2.40;99.90;;;;;;5122708;27;20031;-42
2022/12/10 08:17:41;;;;;;;155.65;26.25;;;-2.20;99.90;;;;;;5123191;27;20031;-45
2022/12/10 08:20:08;;;;;;;142.52;25.88;;;-2.20;99.90;;;;;;5121989;27;20035;-42
2022/12/10 08:22:35;;;;;;;130.40;25.73;;;-2.30;99.90;;;;;;5122993;27;20086;-43
2022/12/10 08:25:01;;;;;;;156.88;27.13;;;-2.30;99.90;;;;;;5122543;27;20498;-42
2022/12/10 08:27:27;;;;;;;159.27;27.38;;;-2.20;99.90;;;;;;5122026;27;20071;-43
2022/12/10 08:29:53;;;;;;;166.23;27.88;;;-2.20;99.90;;;;;;5121722;27;20039;-44
2022/12/10 08:32:18;;;;;;;148.50;27.88;;;-2.20;99.90;;;;;;5122218;27;20382;-44
2022/12/10 08:34:44;;;;;;;164.68;28.27;;;-2.50;99.90;;;;;;5121502;27;20031;-42
2022/12/10 08:37:10;;;;;;;125.90;28.23;;;-2.60;99.90;;;;;;5122361;27;20066;-42
2022/12/10 08:39:36;;;;;;;153.80;28.40;;;-2.60;99.90;;;;;;5122019;27;20446;-44
2022/12/10 08:42:01;;;;;;;178.55;27.10;;;-2.60;99.90;;;;;;5121038;27;20478;-43
2022/12/10 08:44:27;;;;;;;140.07;29.30;;;-2.20;99.90;;;;;;5103219;27;20067;-44
2022/12/10 08:46:53;;;;;;;137.25;26.65;;;-2.60;99.90;;;;;;5120296;27;20038;-43
2022/12/10 08:49:19;;;;;;;159.55;26.73;;;-2.30;99.90;;;;;;5121394;27;20035;-42
2022/12/10 08:51:44;;;;;;;135.15;27.63;;;-2.50;99.90;;;;;;5121275;27;20447;-44
2022/12/10 08:54:10;;;;;;;128.75;25.95;;;-2.50;99.90;;;;;;5113363;27;20049;-45
2022/12/10 08:56:36;;;;;;;135.10;26.98;;;-2.30;99.90;;;;;;5121369;27;20031;-44
2022/12/10 08:59:02;;;;;;;176.35;30.25;;;-2.10;99.90;;;;;;5089940;27;20051;-43
2022/12/10 09:01:28;;;;;;;126.75;27.75;;;-2.30;99.90;;;;;;5110870;27;20035;-44
2022/12/10 09:03:53;;;;;;;136.07;30.02;;;-2.00;99.90;;;;;;5119881;28;20535;-46
2022/12/10 09:06:23;;;;;;;166.80;33.72;;;-2.50;99.90;;;;;;5119258;28;20031;-45
2022/12/10 09:08:50;;;;;;;98.35;26.35;;;-2.10;99.90;;;;;;5120531;28;20153;-45
2022/12/10 09:11:21;;;;;;;116.88;25.30;;;-2.50;99.90;;;;;;5121949;28;20394;-44
2022/12/10 09:13:47;;;;;;;114.05;26.95;;;-2.40;99.90;;;;;;5120749;28;20499;-45
2022/12/10 09:16:13;;;;;;;131.68;28.17;;;-2.10;99.90;;;;;;5119958;28;20105;-44
2022/12/10 09:18:39;;;;;;;117.78;27.35;;;-1.90;99.90;;;;;;5121621;28;20049;-44
2022/12/10 09:21:07;;;;;;;124.80;29.08;;;-1.90;99.90;;;;;;5120298;28;20031;-43
2022/12/10 09:23:33;;;;;;;113.03;28.50;;;-2.40;99.90;;;;;;5120665;28;20031;-46
2022/12/10 09:25:59;;;;;;;123.95;28.77;;;-2.40;99.90;;;;;;5119387;28;20024;-44
2022/12/10 09:28:24;;;;;;;111.95;25.90;;;-2.40;99.90;;;;;;5119992;28;20096;-45
2022/12/10 09:30:58;;;;;;;116.40;27.33;;;-2.30;99.90;;;;;;5120290;28;20095;-43
2022/12/10 09:33:25;;;;;;;128.68;28.27;;;-2.20;99.90;;;;;;5100809;28;20080;-47
2022/12/10 09:35:50;;;;;;;120.82;28.95;;;-1.90;99.90;;;;;;5117544;28;20035;-46
2022/12/10 09:38:16;;;;;;;127.68;27.17;;;-2.30;99.90;;;;;;5117680;28;20043;-46
2022/12/10 09:40:59;;;;;;;110.25;26.52;;;-1.80;99.90;;;;;;5101364;28;20076;-46
2022/12/10 09:43:48;;;;;;;115.57;27.65;;;-2.10;99.90;;;;;;5117485;28;20035;-48
2022/12/10 09:46:24;;;;;;;120.93;26.33;;;-2.30;99.90;;;;;;5118212;28;20114;-45
2022/12/10 09:49:07;;;;;;;100.13;25.33;;;-1.90;99.90;;;;;;5120964;28;20035;-44
2022/12/10 09:51:37;;;;;;;108.13;25.95;;;-2.20;99.90;;;;;;5123536;27;20066;-43
2022/12/10 09:54:12;;;;;;;111.82;25.58;;;-1.80;99.90;;;;;;5122503;27;22909;-43
2022/12/10 09:56:39;;;;;;;124.07;27.63;;;-2.10;99.90;;;;;;5123593;27;20066;-43
2022/12/10 09:59:39;;;;;;;119.03;27.73;;;-2.20;99.90;;;;;;5106455;27;20039;-43
2022/12/10 10:02:07;;;;;;;120.47;29.15;;;-1.70;99.90;;;;;;5122824;27;20087;-43
2022/12/10 10:04:33;;;;;;;119.97;29.23;;;-2.00;99.90;;;;;;5123172;27;20054;-44
2022/12/10 10:06:59;;;;;;;101.40;26.73;;;-1.40;99.90;;;;;;5123853;27;20082;-45
2022/12/10 10:09:26;;;;;;;115.93;27.75;;;-2.20;99.90;;;;;;5122401;27;20035;-44
2022/12/10 10:11:51;;;;;;;115.15;28.33;;;-2.20;99.90;;;;;;5104075;27;20138;-46
2022/12/10 10:14:25;;;;;;;119.30;28.52;;;-1.60;99.90;;;;;;5122571;27;20448;-43
2022/12/10 10:17:03;;;;;;;105.90;28.23;;;-1.90;99.90;;;;;;5123886;27;20065;-45
2022/12/10 10:19:37;;;;;;;106.03;25.33;;;-2.00;99.90;;;;;;5122108;27;20047;-43
2022/12/10 10:22:04;;;;;;;102.30;24.05;;;-1.70;99.90;;;;;;5119876;27;20042;-44
2022/12/10 10:24:40;;;;;;;108.50;26.20;;;-1.90;99.90;;;;;;5119949;27;20036;-45
2022/12/10 10:27:28;;;;;;;133.43;27.75;;;-2.00;99.90;;;;;;5085335;27;20031;-47
2022/12/10 10:29:57;;;;;;;108.63;26.83;;;-1.90;99.90;;;;;;5104084;27;20470;-45
2022/12/10 10:32:25;;;;;;;110.95;28.08;;;-1.90;99.90;;;;;;5086585;27;20042;-43
2022/12/10 10:34:59;;;;;;;104.20;27.65;;;-1.40;99.90;;;;;;5102920;27;20471;-43
2022/12/10 10:37:30;;;;;;;116.78;27.55;;;-1.40;99.90;;;;;;5123290;27;20091;-45
2022/12/10 10:39:57;;;;;;;105.00;27.13;;;-1.60;99.90;;;;;;5122076;27;20047;-43
2022/12/10 10:42:34;;;;;;;103.28;26.23;;;-1.00;99.90;;;;;;5120618;27;20046;-45
2022/12/10 10:45:04;;;;;;;111.20;28.38;;;-1.90;99.90;;;;;;5102727;27;20374;-45
2022/12/10 10:47:33;;;;;;;108.38;27.35;;;-1.40;99.90;;;;;;5121185;27;20101;-46
2022/12/10 10:49:59;;;;;;;118.50;29.85;;;-1.90;99.90;;;;;;5096918;27;20027;-45
2022/12/10 10:52:29;;;;;;;105.20;28.58;;;-1.30;99.90;;;;;;5099881;27;20054;-43
2022/12/10 10:54:56;;;;;;;115.30;28.85;;;-1.40;99.90;;;;;;5117478;27;20450;-42
2022/12/10 10:57:24;;;;;;;113.07;27.65;;;-1.50;99.90;;;;;;5120647;27;20039;-44
2022/12/10 10:59:54;;;;;;;117.97;31.27;;;-1.70;99.90;;;;;;5101610;27;20112;-43
2022/12/10 11:02:29;;;;;;;108.93;29.27;;;-0.90;99.90;;;;;;5119690;27;20036;-44
2022/12/10 11:04:58;;;;;;;113.72;28.73;;;-1.70;99.90;;;;;;5120255;27;20395;-43
2022/12/10 11:07:41;;;;;;;107.88;28.15;;;-1.30;99.90;;;;;;5122732;27;20466;-45
2022/12/10 11:10:18;;;;;;;117.45;28.73;;;-1.20;99.90;;;;;;5121673;27;20382;-44
2022/12/10 11:12:53;;;;;;;100.65;27.70;;;-1.30;99.90;;;;;;5122772;27;20115;-44
2022/12/10 11:15:22;;;;;;;110.20;27.48;;;-1.10;99.90;;;;;;5123947;27;20039;-43
2022/12/10 11:17:53;;;;;;;111.55;27.52;;;-2.30;99.90;;;;;;5124356;27;20035;-43
2022/12/10 11:20:29;;;;;;;117.80;29.33;;;-1.10;99.90;;;;;;5123830;27;20041;-43
2022/12/10 11:23:08;;;;;;;117.28;29.10;;;-1.50;99.90;;;;;;5097854;27;20655;-44
2022/12/10 11:25:39;;;;;;;136.38;30.00;;;-1.50;99.90;;;;;;5112313;27;20043;-45
2022/12/10 11:28:23;;;;;;;102.55;28.20;;;-1.50;99.90;;;;;;5120952;27;20442;-43
2022/12/10 11:31:15;;;;;;;108.90;28.48;;;-1.40;99.90;;;;;;5123999;27;20035;-44
2022/12/10 11:34:16;;;;;;;123.28;30.23;;;-1.20;99.90;;;;;;5103800;27;20045;-46
2022/12/10 11:36:47;;;;;;;104.20;26.95;;;-1.30;99.90;;;;;;5120214;27;20038;-45
2022/12/10 11:39:36;;;;;;;96.70;25.13;;;-1.20;99.90;;;;;;5122833;27;20047;-46
2022/12/10 11:42:21;;;;;;;109.85;27.35;;;-1.50;99.90;;;;;;5123611;27;20042;-49
2022/12/10 11:45:26;;;;;;;122.47;28.95;;;-1.30;99.90;;;;;;5123143;27;20043;-47
2022/12/10 11:48:22;;;;;;;123.82;29.67;;;-1.40;99.90;;;;;;5123545;27;20096;-44
2022/12/10 11:50:50;;;;;;;119.22;29.25;;;-0.90;99.90;;;;;;5122794;27;20031;-44
2022/12/10 11:53:34;;;;;;;121.85;28.40;;;-1.40;99.90;;;;;;5120933;27;20046;-46
2022/12/10 11:56:11;;;;;;;122.80;29.63;;;-0.90;99.90;;;;;;5121724;27;20645;-47
2022/12/10 11:58:43;;;;;;;132.90;29.80;;;-0.80;99.90;;;;;;5102963;27;20126;-44
2022/12/10 12:01:24;;;;;;;130.82;31.40;;;-1.40;99.90;;;;;;5121445;27;20035;-44
2022/12/10 12:03:52;;;;;;;103.95;28.20;;;-1.40;99.90;;;;;;5115265;27;20048;-44
2022/12/10 12:07:00;;;;;;;132.18;30.48;;;-1.10;99.90;;;;;;5121881;27;20053;-46
2022/12/10 12:09:57;;;;;;;118.03;29.85;;;-1.40;99.90;;;;;;5120923;27;20502;-44
2022/12/10 12:12:47;;;;;;;107.97;27.75;;;-1.30;99.90;;;;;;5120201;27;20039;-45
2022/12/10 12:15:24;;;;;;;105.40;26.13;;;-0.70;99.90;;;;;;5122250;27;20050;-45
2022/12/10 12:18:04;;;;;;;125.60;29.70;;;-1.20;99.90;;;;;;5120067;27;20092;-45
2022/12/10 12:20:38;;;;;;;120.95;29.90;;;-1.10;99.90;;;;;;5122772;27;20300;-47
2022/12/10 12:23:38;;;;;;;108.75;27.27;;;-0.90;99.90;;;;;;5121113;27;20042;-46
2022/12/10 12:26:10;;;;;;;125.70;30.15;;;-1.20;99.90;;;;;;5122226;27;20114;-47
2022/12/10 12:28:46;;;;;;;106.63;28.42;;;-1.10;99.90;;;;;;5121539;27;20039;-46
2022/12/10 12:31:19;;;;;;;119.57;29.35;;;-1.00;99.90;;;;;;5122089;27;20503;-44
2022/12/10 12:33:54;;;;;;;129.53;32.00;;;-0.80;99.90;;;;;;5120208;27;20043;-45
2022/12/10 12:36:23;;;;;;;123.35;31.88;;;-0.60;99.90;;;;;;5121802;27;20039;-46
2022/12/10 12:39:01;;;;;;;124.43;30.92;;;-0.80;99.90;;;;;;5121413;27;20054;-46
2022/12/10 12:41:47;;;;;;;110.28;27.60;;;-0.60;99.90;;;;;;5122325;27;20050;-46
2022/12/10 12:44:18;;;;;;;119.55;30.30;;;-1.10;99.90;;;;;;5121515;27;20050;-44
2022/12/10 12:46:47;;;;;;;118.07;30.05;;;-0.60;99.90;;;;;;5103459;27;20050;-44